Columbia, New Jersey
Current Conditions -  °F | °C
As of 1:53 PM on Sunday 21 Dec 2014 (Local Time) from KMPO Reporting Station
Overcast Overcast  
Wind Chill: 18°   Ceiling: 1300
Heat Index: 27°   Visibility: 10mi
Dew Point: 20°   Wind: 9mph
Humidity: 75%   Direction: 330°NNW
Pressure: 30.21"   Gusts: NA
Location:  40.93°N, 75.09°W
Report Text: KMPO 211853Z AUTO 33008KT 10SM OVC013 M03/M07 A3021 RMK AO2 SLP255 T10281067
Loading
Personal Weather Stations






























Interactive Weather Map New forecast layout! Learn more

10-Day Weather Forecast

Advertisements
Track Severe Weather on mobile